Weather at Couran Cove Resort Helipad

Public forecast

Using degrees Celsius for public forecast. Weather courtesy of forecast.io.

Closest aviation weather report (METAR) to Couran Cove Resort Helipad

Closest report is Gold Coast Airport, 21.1 nm (39.0 km) SSE. Retrieved 2020/10/20 10:30 UTC (8 minutes ago):

YBCG 201030Z AUTO 19006KT 9999 // NCD 18/12 Q1017 RF000/0000

Closest aviation forecast (TAF) to Couran Cove Resort Helipad

Closest forecast is Gold Coast Airport, 21.1 nm (39.0 km) SSE. Retrieved 2020/10/20 06:00 UTC (5 hours ago):

TAF YBCG 200502Z 2006/2106 15018KT 9999 SCT030 FM200900 19012KT 9999 FEW025 FM210000 08012KT 9999 FEW035